createdAt,value
2022-12-08T00:01:59.349Z,8.90
2022-12-08T00:05:21.064Z,9.13
2022-12-08T00:08:42.481Z,9.40
2022-12-08T00:11:45.406Z,9.85
2022-12-08T00:14:49.917Z,9.85
2022-12-08T00:17:53.431Z,9.48
2022-12-08T00:20:57.443Z,9.50
2022-12-08T00:24:00.078Z,9.32
2022-12-08T00:27:02.868Z,9.25
2022-12-08T00:30:07.728Z,9.45
2022-12-08T00:33:10.797Z,9.38
2022-12-08T00:36:14.805Z,9.40
2022-12-08T00:39:18.485Z,9.52
2022-12-08T00:42:21.149Z,9.68
2022-12-08T00:45:23.748Z,9.18
2022-12-08T00:48:27.117Z,9.80
2022-12-08T00:51:31.206Z,9.57
2022-12-08T00:54:33.828Z,9.48
2022-12-08T00:57:36.719Z,10.13
2022-12-08T01:00:42.894Z,9.43
2022-12-08T01:03:45.804Z,10.25
2022-12-08T01:06:48.595Z,9.83
2022-12-08T01:09:51.416Z,10.05
2022-12-08T01:12:54.560Z,9.32
2022-12-08T01:15:57.125Z,10.13
2022-12-08T01:19:01.110Z,9.70
2022-12-08T01:22:05.943Z,9.90
2022-12-08T01:25:08.946Z,9.38
2022-12-08T01:28:12.281Z,9.75
2022-12-08T01:31:18.162Z,10.02
2022-12-08T01:34:21.079Z,9.65
2022-12-08T01:37:23.655Z,10.37
2022-12-08T01:40:26.546Z,10.07
2022-12-08T01:44:08.201Z,9.43
2022-12-08T01:47:12.041Z,10.02
2022-12-08T01:50:17.514Z,10.65
2022-12-08T01:53:24.904Z,9.80
2022-12-08T01:57:08.324Z,10.10
2022-12-08T02:00:14.866Z,10.15
2022-12-08T02:03:23.667Z,9.93
2022-12-08T02:06:28.767Z,10.93
2022-12-08T02:09:31.452Z,10.03
2022-12-08T02:12:34.318Z,9.85
2022-12-08T02:16:05.397Z,9.82
2022-12-08T02:19:31.246Z,10.15
2022-12-08T02:23:00.005Z,9.38
2022-12-08T02:26:24.018Z,9.50
2022-12-08T02:29:46.330Z,9.30
2022-12-08T02:33:33.126Z,9.60
2022-12-08T02:36:41.717Z,9.40
2022-12-08T02:39:57.346Z,9.95
2022-12-08T02:43:15.770Z,9.50
2022-12-08T02:46:27.554Z,9.20
2022-12-08T02:49:32.556Z,9.60
2022-12-08T02:52:46.937Z,9.52
2022-12-08T02:56:07.751Z,9.27
2022-12-08T02:59:32.189Z,8.73
2022-12-08T03:02:51.613Z,9.32
2022-12-08T03:06:16.130Z,8.95
2022-12-08T03:09:55.607Z,9.60
2022-12-08T03:13:08.585Z,8.70
2022-12-08T03:16:15.162Z,9.73
2022-12-08T03:19:27.812Z,9.10
2022-12-08T03:22:31.538Z,9.30
2022-12-08T03:25:38.658Z,9.20
2022-12-08T03:28:41.595Z,8.63
2022-12-08T03:31:53.406Z,8.47
2022-12-08T03:34:58.318Z,9.00
2022-12-08T03:38:19.147Z,8.25
2022-12-08T03:41:22.902Z,7.70
2022-12-08T03:44:26.588Z,8.13
2022-12-08T03:47:29.514Z,8.47
2022-12-08T03:50:32.114Z,8.50
2022-12-08T03:53:34.820Z,8.68
2022-12-08T03:56:39.134Z,8.25
2022-12-08T03:59:41.847Z,8.45
2022-12-08T04:02:44.442Z,7.87
2022-12-08T04:05:47.099Z,8.75
2022-12-08T04:08:51.043Z,8.77
2022-12-08T04:11:56.021Z,8.38
2022-12-08T04:14:58.757Z,8.52
2022-12-08T04:18:01.331Z,8.77
2022-12-08T04:21:04.023Z,9.30
2022-12-08T04:24:06.979Z,8.98
2022-12-08T04:27:09.588Z,10.13
2022-12-08T04:30:12.354Z,9.05
2022-12-08T04:33:14.945Z,9.13
2022-12-08T04:36:17.450Z,9.07
2022-12-08T04:39:20.329Z,8.48
2022-12-08T04:42:23.721Z,8.40
2022-12-08T04:45:26.278Z,8.52
2022-12-08T04:48:28.898Z,8.07
2022-12-08T04:51:31.506Z,8.50
2022-12-08T04:54:34.555Z,8.93
2022-12-08T04:57:37.554Z,8.05
2022-12-08T05:00:40.850Z,8.50
2022-12-08T05:03:44.035Z,8.27
2022-12-08T05:06:46.823Z,9.05
2022-12-08T05:09:50.070Z,8.38
2022-12-08T05:12:53.256Z,7.93
2022-12-08T05:16:06.110Z,8.15
2022-12-08T05:19:09.479Z,7.93
2022-12-08T05:22:12.744Z,8.02
2022-12-08T05:25:15.479Z,7.60
2022-12-08T05:28:40.869Z,7.68
2022-12-08T05:31:42.317Z,8.30
2022-12-08T05:34:44.868Z,8.90
2022-12-08T05:37:47.503Z,7.95
2022-12-08T05:40:50.214Z,8.52
2022-12-08T05:43:55.272Z,8.48
2022-12-08T05:46:59.076Z,8.18
2022-12-08T05:50:02.339Z,8.60
2022-12-08T05:53:05.268Z,7.72
2022-12-08T05:56:08.000Z,8.77
2022-12-08T05:59:10.923Z,7.95
2022-12-08T06:02:13.719Z,8.32
2022-12-08T06:05:16.943Z,8.10
2022-12-08T06:08:19.632Z,8.35
2022-12-08T06:11:28.650Z,7.80
2022-12-08T06:14:31.629Z,8.05
2022-12-08T06:17:35.552Z,8.32
2022-12-08T06:20:38.413Z,7.33
2022-12-08T06:23:43.376Z,7.95
2022-12-08T06:26:47.023Z,7.55
2022-12-08T06:29:49.815Z,7.18
2022-12-08T06:32:52.635Z,8.18
2022-12-08T06:35:55.118Z,7.60
2022-12-08T06:38:58.282Z,7.63
2022-12-08T06:42:19.989Z,7.95
2022-12-08T06:45:22.576Z,7.25
2022-12-08T06:48:26.199Z,7.68
2022-12-08T06:51:29.559Z,7.47
2022-12-08T06:54:32.146Z,7.20
2022-12-08T06:57:34.875Z,7.10
2022-12-08T07:00:37.806Z,6.90
2022-12-08T07:03:43.661Z,6.60
2022-12-08T07:06:46.286Z,6.80
2022-12-08T07:09:49.296Z,6.97
2022-12-08T07:12:51.940Z,6.57
2022-12-08T07:15:54.593Z,6.18
2022-12-08T07:18:57.182Z,6.30
2022-12-08T07:22:00.073Z,7.17
2022-12-08T07:25:02.754Z,6.70
2022-12-08T07:28:10.409Z,6.68
2022-12-08T07:31:22.006Z,6.50
2022-12-08T07:34:24.754Z,6.35
2022-12-08T07:37:27.625Z,6.13
2022-12-08T07:40:30.218Z,6.50
2022-12-08T07:43:32.946Z,7.00
2022-12-08T07:46:36.124Z,7.68
2022-12-08T07:49:38.981Z,6.97
2022-12-08T07:52:43.536Z,6.33
2022-12-08T07:55:46.656Z,6.65
2022-12-08T07:58:49.368Z,7.60
2022-12-08T08:02:06.505Z,7.00
2022-12-08T08:05:15.486Z,6.57
2022-12-08T08:08:18.917Z,6.00
2022-12-08T08:11:22.313Z,6.57
2022-12-08T08:14:25.072Z,6.63
2022-12-08T08:17:29.534Z,6.97
2022-12-08T08:20:34.197Z,6.50
2022-12-08T08:23:37.927Z,6.10
2022-12-08T08:26:42.412Z,6.43
2022-12-08T08:29:45.025Z,6.57
2022-12-08T08:32:50.353Z,6.93
2022-12-08T08:35:53.069Z,6.57
2022-12-08T08:38:57.774Z,6.63
2022-12-08T08:42:00.494Z,6.85
2022-12-08T08:45:03.402Z,7.03
2022-12-08T08:48:06.207Z,6.80
2022-12-08T08:51:11.103Z,7.60
2022-12-08T08:54:14.027Z,7.10
2022-12-08T08:57:25.030Z,7.30
2022-12-08T09:00:33.080Z,6.30
2022-12-08T09:03:35.840Z,6.30
2022-12-08T09:06:39.151Z,6.75
2022-12-08T09:09:44.987Z,6.50
2022-12-08T09:12:47.604Z,6.60
2022-12-08T09:15:50.319Z,6.95
2022-12-08T09:18:53.568Z,6.30
2022-12-08T09:21:57.660Z,6.65
2022-12-08T09:25:00.471Z,6.47
2022-12-08T09:28:03.265Z,6.20
2022-12-08T09:31:06.104Z,6.47
2022-12-08T09:34:11.796Z,6.43
2022-12-08T09:37:15.399Z,6.78
2022-12-08T09:40:21.422Z,6.73
2022-12-08T09:43:43.332Z,6.10
2022-12-08T09:46:48.675Z,7.03
2022-12-08T09:50:22.883Z,6.47
2022-12-08T09:53:43.929Z,6.68
2022-12-08T09:56:48.597Z,6.77
2022-12-08T09:59:58.296Z,6.90
2022-12-08T10:03:01.121Z,7.05
2022-12-08T10:06:18.907Z,6.57
2022-12-08T10:09:44.340Z,6.72
2022-12-08T10:13:13.544Z,6.20
2022-12-08T10:16:47.870Z,6.70
2022-12-08T10:20:00.795Z,6.55
2022-12-08T10:23:37.886Z,6.28
2022-12-08T10:26:41.008Z,6.63
2022-12-08T10:29:43.608Z,6.00
2022-12-08T10:32:51.272Z,6.03
2022-12-08T10:35:59.388Z,6.22
2022-12-08T10:39:02.806Z,6.25
2022-12-08T10:42:18.638Z,6.53
2022-12-08T10:45:41.765Z,6.20
2022-12-08T10:48:52.677Z,6.68
2022-12-08T10:51:55.503Z,6.47
2022-12-08T10:55:00.978Z,5.97
2022-12-08T10:58:04.692Z,6.28
2022-12-08T11:01:28.263Z,6.47
2022-12-08T11:04:38.531Z,6.45
2022-12-08T11:07:47.783Z,6.40
2022-12-08T11:10:52.210Z,6.25
2022-12-08T11:13:56.034Z,6.10
2022-12-08T11:17:08.784Z,6.77
2022-12-08T11:20:23.707Z,6.18
2022-12-08T11:23:42.681Z,6.40
2022-12-08T11:26:54.530Z,7.22
2022-12-08T11:29:57.443Z,6.85
2022-12-08T11:33:12.167Z,6.70
2022-12-08T11:36:16.378Z,7.10
2022-12-08T11:39:20.611Z,6.38
2022-12-08T11:46:31.876Z,6.88
2022-12-08T11:49:37.545Z,7.00
2022-12-08T11:52:47.246Z,6.00
2022-12-08T11:55:55.323Z,6.68
2022-12-08T11:59:01.770Z,6.50
2022-12-08T12:02:06.346Z,7.43
2022-12-08T12:05:56.979Z,6.93
2022-12-08T12:09:10.110Z,6.30
2022-12-08T12:12:51.893Z,6.50
2022-12-08T12:16:16.728Z,6.57
2022-12-08T12:19:22.307Z,6.35
2022-12-08T12:22:33.240Z,6.07
2022-12-08T12:25:37.311Z,6.70
2022-12-08T12:29:17.610Z,6.60
2022-12-08T12:33:01.744Z,6.13
2022-12-08T12:36:10.845Z,7.35
2022-12-08T12:39:15.646Z,6.30
2022-12-08T12:42:40.829Z,6.28
2022-12-08T12:45:47.387Z,6.10
2022-12-08T12:48:53.962Z,6.22
2022-12-08T12:51:57.965Z,6.28
2022-12-08T12:55:00.623Z,6.90
2022-12-08T12:58:20.602Z,6.22
2022-12-08T13:01:37.014Z,6.70
2022-12-08T13:04:40.370Z,6.35
2022-12-08T13:08:00.851Z,5.85
2022-12-08T13:11:09.130Z,6.47
2022-12-08T13:14:36.712Z,6.45
2022-12-08T13:17:45.305Z,6.28
2022-12-08T13:21:06.151Z,5.85
2022-12-08T13:24:14.806Z,6.35
2022-12-08T13:27:17.693Z,6.13
2022-12-08T13:30:43.959Z,6.13
2022-12-08T13:33:47.328Z,5.82
2022-12-08T13:37:08.511Z,6.15
2022-12-08T13:40:24.181Z,5.88
2022-12-08T13:43:45.084Z,6.60
2022-12-08T13:47:31.650Z,5.97
2022-12-08T13:52:32.925Z,5.90
2022-12-08T13:57:35.141Z,6.20
2022-12-08T14:00:37.996Z,6.23
2022-12-08T14:04:30.959Z,6.22
2022-12-08T14:07:18.628Z,6.28
2022-12-08T14:10:21.415Z,6.30
2022-12-08T14:13:24.817Z,6.43
2022-12-08T14:16:39.806Z,5.97
2022-12-08T14:19:57.624Z,6.07
2022-12-08T14:23:00.411Z,6.13
2022-12-08T14:26:10.908Z,6.13
2022-12-08T14:29:38.374Z,5.90
2022-12-08T14:32:58.507Z,5.80
2022-12-08T14:36:01.296Z,5.47
2022-12-08T14:39:04.020Z,5.72
2022-12-08T14:42:07.982Z,5.85
2022-12-08T14:45:13.064Z,6.32
2022-12-08T14:48:42.848Z,5.80
2022-12-08T14:51:46.670Z,6.03
2022-12-08T14:54:51.385Z,5.82
2022-12-08T14:57:53.983Z,5.30
2022-12-08T15:00:58.688Z,6.43
2022-12-08T15:04:16.127Z,6.63
2022-12-08T15:07:27.809Z,6.22
2022-12-08T15:10:33.980Z,6.75
2022-12-08T15:13:44.624Z,6.65
2022-12-08T15:16:47.284Z,6.20
2022-12-08T15:19:57.751Z,6.07
2022-12-08T15:23:00.536Z,6.78
2022-12-08T15:26:04.818Z,6.70
2022-12-08T15:29:29.565Z,7.18
2022-12-08T15:32:32.952Z,7.30
2022-12-08T15:35:40.565Z,6.90
2022-12-08T15:38:44.431Z,7.43
2022-12-08T15:41:46.945Z,7.43
2022-12-08T15:44:49.524Z,7.80
2022-12-08T15:47:52.215Z,7.53
2022-12-08T15:50:55.235Z,7.60
2022-12-08T15:53:57.725Z,7.38
2022-12-08T15:57:19.225Z,7.95
2022-12-08T16:00:51.203Z,8.15
2022-12-08T16:07:28.262Z,9.30
2022-12-08T16:10:45.658Z,8.98
2022-12-08T16:14:00.859Z,8.65
2022-12-08T16:17:18.466Z,8.00
2022-12-08T16:20:28.220Z,8.05
2022-12-08T16:23:43.767Z,8.27
2022-12-08T16:30:17.232Z,8.82
2022-12-08T16:33:20.654Z,8.50
2022-12-08T16:36:23.665Z,8.07
2022-12-08T16:39:26.369Z,8.37
2022-12-08T16:42:41.243Z,7.95
2022-12-08T16:45:45.258Z,8.32
2022-12-08T16:48:48.301Z,8.25
2022-12-08T16:51:50.895Z,8.57
2022-12-08T16:54:53.610Z,7.73
2022-12-08T16:57:56.821Z,8.63
2022-12-08T17:00:59.638Z,8.73
2022-12-08T17:04:30.487Z,10.25
2022-12-08T17:07:28.214Z,9.18
2022-12-08T17:10:34.699Z,8.93
2022-12-08T17:13:40.245Z,9.00
2022-12-08T17:16:43.069Z,9.93
2022-12-08T17:19:46.158Z,9.38
2022-12-08T17:22:49.947Z,9.15
2022-12-08T17:26:02.229Z,9.23
2022-12-08T17:29:05.364Z,9.15
2022-12-08T17:32:08.490Z,9.50
2022-12-08T17:35:11.593Z,8.95
2022-12-08T17:38:16.901Z,9.00
2022-12-08T17:41:19.652Z,8.90
2022-12-08T17:44:23.883Z,8.43
2022-12-08T17:47:28.111Z,9.05
2022-12-08T17:50:30.962Z,8.60
2022-12-08T17:53:37.353Z,9.35
2022-12-08T17:56:41.072Z,8.53
2022-12-08T17:59:44.090Z,9.13
2022-12-08T18:02:46.728Z,8.85
2022-12-08T18:05:49.708Z,9.30
2022-12-08T18:08:52.930Z,8.77
2022-12-08T18:11:56.469Z,8.83
2022-12-08T18:15:01.163Z,8.73
2022-12-08T18:18:04.734Z,9.18
2022-12-08T18:21:09.019Z,8.65
2022-12-08T18:24:20.957Z,9.15
2022-12-08T18:27:24.629Z,8.43
2022-12-08T18:30:27.394Z,8.93
2022-12-08T18:33:31.746Z,9.02
2022-12-08T18:36:35.016Z,8.68
2022-12-08T18:39:38.846Z,8.55
2022-12-08T18:42:43.255Z,7.90
2022-12-08T18:45:47.281Z,7.88
2022-12-08T18:48:52.506Z,8.57
2022-12-08T18:51:55.782Z,8.43
2022-12-08T18:55:07.515Z,8.13
2022-12-08T18:58:12.965Z,7.93
2022-12-08T19:01:18.069Z,7.72
2022-12-08T19:04:29.432Z,7.40
2022-12-08T19:07:33.069Z,7.88
2022-12-08T19:10:38.698Z,7.82
2022-12-08T19:13:41.570Z,8.17
2022-12-08T19:16:46.293Z,7.97
2022-12-08T19:19:51.323Z,8.32
2022-12-08T19:22:55.453Z,7.43
2022-12-08T19:25:59.052Z,7.45
2022-12-08T19:29:04.228Z,7.87
2022-12-08T19:32:08.156Z,7.22
2022-12-08T19:35:12.478Z,7.53
2022-12-08T19:38:17.290Z,7.55
2022-12-08T19:41:40.573Z,7.45
2022-12-08T19:44:53.565Z,7.50
2022-12-08T19:47:59.561Z,7.80
2022-12-08T19:51:05.424Z,7.35
2022-12-08T19:54:10.294Z,7.93
2022-12-08T19:57:14.542Z,7.18
2022-12-08T20:00:20.899Z,7.60
2022-12-08T20:03:26.096Z,7.72
2022-12-08T20:06:30.896Z,7.63
2022-12-08T20:09:33.899Z,6.90
2022-12-08T20:12:37.865Z,7.95
2022-12-08T20:15:41.625Z,7.40
2022-12-08T20:18:50.123Z,7.45
2022-12-08T20:21:53.218Z,8.02
2022-12-08T20:25:01.029Z,6.82
2022-12-08T20:28:04.917Z,7.15
2022-12-08T20:31:08.580Z,6.93
2022-12-08T20:34:16.911Z,7.50
2022-12-08T20:37:20.332Z,7.70
2022-12-08T20:40:24.782Z,7.22
2022-12-08T20:43:30.832Z,7.60
2022-12-08T20:46:34.672Z,6.83
2022-12-08T20:49:37.641Z,7.22
2022-12-08T20:52:41.204Z,6.80
2022-12-08T20:55:46.289Z,7.50
2022-12-08T20:58:51.058Z,7.47
2022-12-08T21:01:55.949Z,6.77
2022-12-08T21:04:59.667Z,6.80
2022-12-08T21:08:02.560Z,6.95
2022-12-08T21:11:06.586Z,6.50
2022-12-08T21:14:10.259Z,7.25
2022-12-08T21:17:13.542Z,7.43
2022-12-08T21:20:16.421Z,7.20
2022-12-08T21:23:19.247Z,7.10
2022-12-08T21:26:26.019Z,6.97
2022-12-08T21:29:29.597Z,7.00
2022-12-08T21:32:32.530Z,7.00
2022-12-08T21:35:35.436Z,6.57
2022-12-08T21:38:39.779Z,6.72
2022-12-08T21:42:01.372Z,6.90
2022-12-08T21:45:04.256Z,7.07
2022-12-08T21:48:11.230Z,6.60
2022-12-08T21:51:14.551Z,6.85
2022-12-08T21:54:19.238Z,6.95
2022-12-08T21:57:22.810Z,7.28
2022-12-08T22:00:25.624Z,7.43
2022-12-08T22:03:30.087Z,6.70
2022-12-08T22:06:32.991Z,6.47
2022-12-08T22:09:35.940Z,6.60
2022-12-08T22:12:39.690Z,6.70
2022-12-08T22:15:42.598Z,7.28
2022-12-08T22:18:46.058Z,6.93
2022-12-08T22:21:48.925Z,6.88
2022-12-08T22:24:51.625Z,7.32
2022-12-08T22:27:54.491Z,6.78
2022-12-08T22:30:57.412Z,7.72
2022-12-08T22:34:00.344Z,6.90
2022-12-08T22:37:03.065Z,6.75
2022-12-08T22:40:08.447Z,6.65
2022-12-08T22:43:11.667Z,7.05
2022-12-08T22:46:20.503Z,6.72
2022-12-08T22:49:25.231Z,6.63
2022-12-08T22:52:28.457Z,6.80
2022-12-08T22:55:31.288Z,7.78
2022-12-08T22:58:34.298Z,6.80
2022-12-08T23:01:36.987Z,7.00
2022-12-08T23:04:39.837Z,7.07
2022-12-08T23:07:44.792Z,6.97
2022-12-08T23:10:47.875Z,6.78
2022-12-08T23:13:51.256Z,7.40
2022-12-08T23:16:53.954Z,6.70
2022-12-08T23:19:56.855Z,6.67
2022-12-08T23:23:01.423Z,6.88
2022-12-08T23:26:05.230Z,7.38
2022-12-08T23:29:08.177Z,6.75
2022-12-08T23:32:10.787Z,7.10
2022-12-08T23:35:15.241Z,6.77
2022-12-08T23:38:20.206Z,6.47
2022-12-08T23:41:23.066Z,6.60
2022-12-08T23:44:25.999Z,7.05
2022-12-08T23:47:29.033Z,6.93
2022-12-08T23:50:32.023Z,6.73
2022-12-08T23:53:36.277Z,6.82
2022-12-08T23:56:38.905Z,7.50
2022-12-08T23:59:42.650Z,6.50
